Time;durP1;ratioP1;P1;durP2;ratioP2;P2;SDS_P1;SDS_P2;PMS_P1;PMS_P2;Temp;Humidity;BMP_temperature;BMP_pressure;BME280_temperature;BME280_humidity;BME280_pressure;Samples;Min_cycle;Max_cycle;Signal;HPM_P1;HPM_P2
2022/12/28 00:01:23;;;;;;;;;;;;;;;;;;5072696;28;19928;-75
2022/12/28 00:03:50;;;;;;;;;;;;;;;;;;5072534;28;20378;-75
2022/12/28 00:06:17;;;;;;;;;;;;;;;;;;5092676;28;19978;-76
2022/12/28 00:08:43;;;;;;;;;;;;;;;;;;5092713;28;19927;-77
2022/12/28 00:11:11;;;;;;;;;;;;;;;;;;5092561;28;20011;-76
2022/12/28 00:13:38;;;;;;;;;;;;;;;;;;5092047;28;20077;-77
2022/12/28 00:16:08;;;;;;;;;;;;;;;;;;5092353;28;19987;-76
2022/12/28 00:18:37;;;;;;;;;;;;;;;;;;5092361;28;19924;-76
2022/12/28 00:21:04;;;;;;;;;;;;;;;;;;5092671;28;20396;-76
2022/12/28 00:23:31;;;;;;;;;;;;;;;;;;5091871;28;19924;-75
2022/12/28 00:26:04;;;;;;;;;;;;;;;;;;5092303;28;20322;-75
2022/12/28 00:28:31;;;;;;;;;;;;;;;;;;5092153;28;20015;-76
2022/12/28 00:30:57;;;;;;;;;;;;;;;;;;5092723;28;20018;-75
2022/12/28 00:33:24;;;;;;;;;;;;;;;;;;5092240;28;20007;-76
2022/12/28 00:35:54;;;;;;;;;;;;;;;;;;5092225;28;20082;-75
2022/12/28 00:38:20;;;;;;;;;;;;;;;;;;5092209;28;19959;-76
2022/12/28 00:40:47;;;;;;;;;;;;;;;;;;5092147;28;20010;-75
2022/12/28 00:43:13;;;;;;;;;;;;;;;;;;5091614;28;20370;-76
2022/12/28 00:45:40;;;;;;;;;;;;;;;;;;5092013;28;20347;-77
2022/12/28 00:48:06;;;;;;;;;;;;;;;;;;5092191;28;19924;-76
2022/12/28 00:50:33;;;;;;;;;;;;;;;;;;5095122;28;19928;-75
2022/12/28 00:53:00;;;;;;;;;;;;;;;;;;5104842;28;19925;-76
2022/12/28 00:55:27;;;;;;;;;;;;;;;;;;5097520;28;20007;-76
2022/12/28 00:57:53;;;;;;;;;;;;;;;;;;5110971;22;19960;-54
2022/12/28 01:00:20;;;;;;;;;;;;;;;;;;5070442;28;20347;-55
2022/12/28 01:02:46;;;;;;;;;;;;;;;;;;5071735;28;19931;-55
2022/12/28 01:05:13;;;;;;;;;;;;;;;;;;5062721;28;19963;-53
2022/12/28 01:07:40;;;;;;;;;;;;;;;;;;5055540;28;19925;-49
2022/12/28 01:10:08;;;;;;;;;;;;;;;;;;5055213;28;20309;-51
2022/12/28 01:12:35;;;;;;;;;;;;;;;;;;5054838;28;20344;-49
2022/12/28 01:15:01;;;;;;;;;;;;;;;;;;5055103;28;19960;-47
2022/12/28 01:17:28;;;;;;;;;;;;;;;;;;5054951;28;19928;-50
2022/12/28 01:19:55;;;;;;;;;;;;;;;;;;5054865;28;19925;-52
2022/12/28 01:22:22;;;;;;;;;;;;;;;;;;5054862;28;19951;-56
2022/12/28 01:24:48;;;;;;;;;;;;;;;;;;5054596;28;19925;-49
2022/12/28 01:27:16;;;;;;;;;;;;;;;;;;5054849;28;19925;-56
2022/12/28 01:29:45;;;;;;;;;;;;;;;;;;5054946;28;19925;-50
2022/12/28 01:32:12;;;;;;;;;;;;;;;;;;5054669;28;19925;-52
2022/12/28 01:34:39;;;;;;;;;;;;;;;;;;5054645;28;19932;-51
2022/12/28 01:37:05;;;;;;;;;;;;;;;;;;5054576;28;19940;-56
2022/12/28 01:39:32;;;;;;;;;;;;;;;;;;5054511;28;19933;-53
2022/12/28 01:41:58;;;;;;;;;;;;;;;;;;5054709;28;19987;-50
2022/12/28 01:44:38;;;;;;;;;;;;;;;;;;5053979;28;19925;-51
2022/12/28 01:47:08;;;;;;;;;;;;;;;;;;5054561;28;19963;-50
2022/12/28 01:49:37;;;;;;;;;;;;;;;;;;5054405;28;19925;-49
2022/12/28 01:52:06;;;;;;;;;;;;;;;;;;5054255;28;19948;-50
2022/12/28 01:54:34;;;;;;;;;;;;;;;;;;5054211;28;19925;-53
2022/12/28 01:57:01;;;;;;;;;;;;;;;;;;5054380;28;19982;-50
2022/12/28 01:59:32;;;;;;;;;;;;;;;;;;5054324;28;20351;-53
2022/12/28 02:02:00;;;;;;;;;;;;;;;;;;5054143;28;19929;-55
2022/12/28 02:04:27;;;;;;;;;;;;;;;;;;5053905;28;20359;-54
2022/12/28 02:06:56;;;;;;;;;;;;;;;;;;5054045;28;19925;-53
2022/12/28 02:09:26;;;;;;;;;;;;;;;;;;5054087;28;19932;-55
2022/12/28 02:11:56;;;;;;;;;;;;;;;;;;5054281;28;19929;-54
2022/12/28 02:14:22;;;;;;;;;;;;;;;;;;5053366;28;19932;-50
2022/12/28 02:16:50;;;;;;;;;;;;;;;;;;5053783;28;20377;-54
2022/12/28 02:19:21;;;;;;;;;;;;;;;;;;5053999;28;19925;-55
2022/12/28 02:21:52;;;;;;;;;;;;;;;;;;5053903;28;19924;-55
2022/12/28 02:24:33;;;;;;;;;;;;;;;;;;5053595;28;19925;-53
2022/12/28 02:27:01;;;;;;;;;;;;;;;;;;5053801;28;19940;-54
2022/12/28 02:29:37;;;;;;;;;;;;;;;;;;5053341;28;19929;-51
2022/12/28 02:32:15;;;;;;;;;;;;;;;;;;5053912;28;19935;-52
2022/12/28 02:34:47;;;;;;;;;;;;;;;;;;5053212;28;19925;-54
2022/12/28 02:37:17;;;;;;;;;;;;;;;;;;5053411;28;19925;-54
2022/12/28 02:39:46;;;;;;;;;;;;;;;;;;5053256;28;19925;-52
2022/12/28 02:42:13;;;;;;;;;;;;;;;;;;5053252;28;19931;-52
2022/12/28 02:50:13;;;;;;;;;;;;;;;;;;5052962;28;20008;-55
2022/12/28 02:52:51;;;;;;;;;;;;;;;;;;5053196;28;20478;-50
2022/12/28 02:58:16;;;;;;;;;;;;;;;;;;5053014;28;20348;-51
2022/12/28 03:00:50;;;;;;;;;;;;;;;;;;5052904;28;19925;-51
2022/12/28 03:03:22;;;;;;;;;;;;;;;;;;5052906;28;19925;-49
2022/12/28 03:08:53;;;;;;;;;;;;;;;;;;5073001;28;20300;-50
2022/12/28 03:11:22;;;;;;;;;;;;;;;;;;5072665;28;19925;-54
2022/12/28 03:13:52;;;;;;;;;;;;;;;;;;5072497;28;19924;-49
2022/12/28 03:16:22;;;;;;;;;;;;;;;;;;5072852;28;19925;-52
2022/12/28 03:32:41;;;;;;;;;;;;;;;;;;5072531;28;20031;-55
2022/12/28 03:35:08;;;;;;;;;;;;;;;;;;5072471;28;19931;-51
2022/12/28 03:37:38;;;;;;;;;;;;;;;;;;5072449;28;19994;-54
2022/12/28 03:40:09;;;;;;;;;;;;;;;;;;5072219;28;19928;-50
2022/12/28 03:45:24;;;;;;;;;;;;;;;;;;5072867;28;20301;-53
2022/12/28 03:47:53;;;;;;;;;;;;;;;;;;5072564;28;19928;-51
2022/12/28 03:50:21;;;;;;;;;;;;;;;;;;5072478;28;19931;-51
2022/12/28 03:52:47;;;;;;;;;;;;;;;;;;5072321;28;19925;-51
2022/12/28 03:55:14;;;;;;;;;;;;;;;;;;5072392;28;19928;-51
2022/12/28 03:57:41;;;;;;;;;;;;;;;;;;5072135;28;19928;-52
2022/12/28 04:00:09;;;;;;;;;;;;;;;;;;5072395;28;20011;-50
2022/12/28 04:02:36;;;;;;;;;;;;;;;;;;5071783;28;19924;-51
2022/12/28 04:05:04;;;;;;;;;;;;;;;;;;5061343;28;19925;-52
2022/12/28 04:07:31;;;;;;;;;;;;;;;;;;5052149;28;19935;-50
2022/12/28 04:09:58;;;;;;;;;;;;;;;;;;5051892;28;19924;-49
2022/12/28 04:12:24;;;;;;;;;;;;;;;;;;5052091;28;19925;-51
2022/12/28 04:14:51;;;;;;;;;;;;;;;;;;5051947;28;19929;-54
2022/12/28 04:17:17;;;;;;;;;;;;;;;;;;5051947;28;20382;-49
2022/12/28 04:19:44;;;;;;;;;;;;;;;;;;5051770;28;19986;-51
2022/12/28 04:22:12;;;;;;;;;;;;;;;;;;5051910;28;19932;-53
2022/12/28 04:24:38;;;;;;;;;;;;;;;;;;5051615;28;19925;-51
2022/12/28 04:27:05;;;;;;;;;;;;;;;;;;5051878;28;19924;-54
2022/12/28 04:29:31;;;;;;;;;;;;;;;;;;5052022;28;19940;-52
2022/12/28 04:31:58;;;;;;;;;;;;;;;;;;5051870;28;19936;-50
2022/12/28 04:34:25;;;;;;;;;;;;;;;;;;5051549;28;19925;-51
2022/12/28 04:36:51;;;;;;;;;;;;;;;;;;5051974;28;19932;-50
2022/12/28 04:39:19;;;;;;;;;;;;;;;;;;5055473;28;19925;-50
2022/12/28 04:41:46;;;;;;;;;;;;;;;;;;5055857;28;19925;-54
2022/12/28 04:44:12;;;;;;;;;;;;;;;;;;5055540;28;19925;-50
2022/12/28 04:46:39;;;;;;;;;;;;;;;;;;5055670;28;19931;-50
2022/12/28 04:49:05;;;;;;;;;;;;;;;;;;5055491;28;20463;-52
2022/12/28 04:51:32;;;;;;;;;;;;;;;;;;5055492;28;19925;-50
2022/12/28 04:53:58;;;;;;;;;;;;;;;;;;5055216;28;19925;-49
2022/12/28 04:56:27;;;;;;;;;;;;;;;;;;5055532;28;19925;-49
2022/12/28 04:58:54;;;;;;;;;;;;;;;;;;5055131;28;19937;-52
2022/12/28 05:01:20;;;;;;;;;;;;;;;;;;5055484;28;20270;-53
2022/12/28 05:03:47;;;;;;;;;;;;;;;;;;5055762;28;19933;-51
2022/12/28 05:06:15;;;;;;;;;;;;;;;;;;5075130;28;19986;-50
2022/12/28 05:08:43;;;;;;;;;;;;;;;;;;5075244;28;19924;-49
2022/12/28 05:11:11;;;;;;;;;;;;;;;;;;5075204;28;19924;-52
2022/12/28 05:13:39;;;;;;;;;;;;;;;;;;5074863;28;19925;-50
2022/12/28 05:16:07;;;;;;;;;;;;;;;;;;5074808;28;19943;-53
2022/12/28 05:18:34;;;;;;;;;;;;;;;;;;5075180;28;19929;-51
2022/12/28 05:21:00;;;;;;;;;;;;;;;;;;5074934;28;19970;-53
2022/12/28 05:23:28;;;;;;;;;;;;;;;;;;5075152;28;19970;-53
2022/12/28 05:25:54;;;;;;;;;;;;;;;;;;5074942;28;19924;-51
2022/12/28 05:28:21;;;;;;;;;;;;;;;;;;5074750;28;19928;-55
2022/12/28 05:30:49;;;;;;;;;;;;;;;;;;5074441;28;20325;-53
2022/12/28 05:33:15;;;;;;;;;;;;;;;;;;5074379;28;19970;-52
2022/12/28 05:35:42;;;;;;;;;;;;;;;;;;5075029;28;20017;-51
2022/12/28 05:38:08;;;;;;;;;;;;;;;;;;5075270;28;20023;-49
2022/12/28 05:40:35;;;;;;;;;;;;;;;;;;5074927;28;19978;-53
2022/12/28 05:43:02;;;;;;;;;;;;;;;;;;5074791;28;19928;-50
2022/12/28 05:45:28;;;;;;;;;;;;;;;;;;5074332;28;19982;-51
2022/12/28 05:47:56;;;;;;;;;;;;;;;;;;5074691;28;19986;-54
2022/12/28 05:50:23;;;;;;;;;;;;;;;;;;5073908;28;19924;-54
2022/12/28 05:52:49;;;;;;;;;;;;;;;;;;5074391;28;20233;-50
2022/12/28 05:55:16;;;;;;;;;;;;;;;;;;5074563;28;19925;-52
2022/12/28 05:57:42;;;;;;;;;;;;;;;;;;5074313;28;19925;-47
2022/12/28 06:00:09;;;;;;;;;;;;;;;;;;5074395;28;19924;-50
2022/12/28 06:02:36;;;;;;;;;;;;;;;;;;5073958;28;20385;-53
2022/12/28 06:05:04;;;;;;;;;;;;;;;;;;5064149;28;20325;-50
2022/12/28 06:07:31;;;;;;;;;;;;;;;;;;5054061;28;19928;-53
2022/12/28 06:09:57;;;;;;;;;;;;;;;;;;5054031;28;19925;-50
2022/12/28 06:12:24;;;;;;;;;;;;;;;;;;5053817;28;19937;-50
2022/12/28 06:14:50;;;;;;;;;;;;;;;;;;5054090;28;19978;-52
2022/12/28 06:17:17;;;;;;;;;;;;;;;;;;5053730;28;19925;-53
2022/12/28 06:19:43;;;;;;;;;;;;;;;;;;5054021;28;19932;-49
2022/12/28 06:22:11;;;;;;;;;;;;;;;;;;5053774;28;20386;-51
2022/12/28 06:24:38;;;;;;;;;;;;;;;;;;5053768;28;19925;-49
2022/12/28 06:27:04;;;;;;;;;;;;;;;;;;5053573;28;19998;-52
2022/12/28 06:29:31;;;;;;;;;;;;;;;;;;5053805;28;19978;-54
2022/12/28 06:31:59;;;;;;;;;;;;;;;;;;5053633;28;19925;-52
2022/12/28 06:34:27;;;;;;;;;;;;;;;;;;5053646;28;20381;-55
2022/12/28 06:36:55;;;;;;;;;;;;;;;;;;5053684;28;20377;-54
2022/12/28 06:39:23;;;;;;;;;;;;;;;;;;5053437;28;20007;-49
2022/12/28 06:41:50;;;;;;;;;;;;;;;;;;5053497;28;19929;-52
2022/12/28 06:44:16;;;;;;;;;;;;;;;;;;5053292;28;19971;-52
2022/12/28 06:46:43;;;;;;;;;;;;;;;;;;5053481;28;20348;-49
2022/12/28 06:49:09;;;;;;;;;;;;;;;;;;5053272;28;19932;-50
2022/12/28 06:51:39;;;;;;;;;;;;;;;;;;5053333;28;19936;-52
2022/12/28 06:54:06;;;;;;;;;;;;;;;;;;5053221;28;19925;-52
2022/12/28 06:56:35;;;;;;;;;;;;;;;;;;5053306;28;19929;-51
2022/12/28 06:59:02;;;;;;;;;;;;;;;;;;5072194;22;20426;-75
2022/12/28 07:01:29;;;;;;;;;;;;;;;;;;5051904;28;20395;-74
2022/12/28 07:03:57;;;;;;;;;;;;;;;;;;5054016;28;20334;-75
2022/12/28 07:06:25;;;;;;;;;;;;;;;;;;5072770;28;19924;-75
2022/12/28 07:08:51;;;;;;;;;;;;;;;;;;5072820;28;19975;-75
2022/12/28 07:11:19;;;;;;;;;;;;;;;;;;5072674;28;20007;-75
2022/12/28 07:13:47;;;;;;;;;;;;;;;;;;5072577;28;20343;-74
2022/12/28 07:16:15;;;;;;;;;;;;;;;;;;5072623;28;20008;-74
2022/12/28 07:18:41;;;;;;;;;;;;;;;;;;5072383;28;20372;-75
2022/12/28 07:21:08;;;;;;;;;;;;;;;;;;5072406;28;20007;-75
2022/12/28 07:23:35;;;;;;;;;;;;;;;;;;5072257;28;20391;-75
2022/12/28 07:26:04;;;;;;;;;;;;;;;;;;5072348;28;20442;-75
2022/12/28 07:28:31;;;;;;;;;;;;;;;;;;5072156;28;20082;-75
2022/12/28 07:30:59;;;;;;;;;;;;;;;;;;5072428;28;20011;-75
2022/12/28 07:33:25;;;;;;;;;;;;;;;;;;5072079;28;19925;-74
2022/12/28 07:35:51;;;;;;;;;;;;;;;;;;5072434;28;20031;-74
2022/12/28 07:38:18;;;;;;;;;;;;;;;;;;5072412;28;20003;-74
2022/12/28 07:40:44;;;;;;;;;;;;;;;;;;5072429;28;19925;-74
2022/12/28 07:43:11;;;;;;;;;;;;;;;;;;5071848;28;20384;-74
2022/12/28 07:45:37;;;;;;;;;;;;;;;;;;5072182;28;20431;-75
2022/12/28 07:48:05;;;;;;;;;;;;;;;;;;5072026;28;20618;-74
2022/12/28 07:50:32;;;;;;;;;;;;;;;;;;5072386;28;20007;-75
2022/12/28 07:53:00;;;;;;;;;;;;;;;;;;5071911;28;19979;-75
2022/12/28 07:55:28;;;;;;;;;;;;;;;;;;5072337;28;20009;-74
2022/12/28 07:57:55;;;;;;;;;;;;;;;;;;5071817;28;20014;-75
2022/12/28 08:00:21;;;;;;;;;;;;;;;;;;5072386;28;20011;-74
2022/12/28 08:02:48;;;;;;;;;;;;;;;;;;5072043;28;19932;-74
2022/12/28 08:05:16;;;;;;;;;;;;;;;;;;5072336;28;20359;-74
2022/12/28 08:07:42;;;;;;;;;;;;;;;;;;5072014;28;19924;-74
2022/12/28 08:10:09;;;;;;;;;;;;;;;;;;5072527;28;19925;-74
2022/12/28 08:12:35;;;;;;;;;;;;;;;;;;5072377;28;20019;-74
2022/12/28 08:15:01;;;;;;;;;;;;;;;;;;5076179;28;20007;-75
2022/12/28 08:17:28;;;;;;;;;;;;;;;;;;5075707;28;20020;-74
2022/12/28 08:19:56;;;;;;;;;;;;;;;;;;5076138;28;20289;-74
2022/12/28 08:22:24;;;;;;;;;;;;;;;;;;5076058;28;20449;-74
2022/12/28 08:24:51;;;;;;;;;;;;;;;;;;5076050;28;19925;-75
2022/12/28 08:27:17;;;;;;;;;;;;;;;;;;5076053;28;20019;-74
2022/12/28 08:29:44;;;;;;;;;;;;;;;;;;5077074;28;20114;-74
2022/12/28 08:32:10;;;;;;;;;;;;;;;;;;5076172;28;20383;-76
2022/12/28 08:34:37;;;;;;;;;;;;;;;;;;5076301;28;19931;-74
2022/12/28 08:37:03;;;;;;;;;;;;;;;;;;5076507;28;19932;-75
2022/12/28 08:39:31;;;;;;;;;;;;;;;;;;5076353;28;19972;-74
2022/12/28 08:41:57;;;;;;;;;;;;;;;;;;5076307;28;20403;-74
2022/12/28 08:44:24;;;;;;;;;;;;;;;;;;5076178;28;20094;-75
2022/12/28 08:46:50;;;;;;;;;;;;;;;;;;5076118;28;19925;-75
2022/12/28 08:49:17;;;;;;;;;;;;;;;;;;5075564;28;19924;-75
2022/12/28 08:51:43;;;;;;;;;;;;;;;;;;5075685;28;20008;-75
2022/12/28 08:54:10;;;;;;;;;;;;;;;;;;5075330;28;20037;-75
2022/12/28 08:56:39;;;;;;;;;;;;;;;;;;5075738;28;19946;-75
2022/12/28 08:59:06;;;;;;;;;;;;;;;;;;5075243;28;19975;-75
2022/12/28 09:01:34;;;;;;;;;;;;;;;;;;5075785;28;20356;-75
2022/12/28 09:04:01;;;;;;;;;;;;;;;;;;5075269;28;19982;-75
2022/12/28 09:06:28;;;;;;;;;;;;;;;;;;5075569;28;19978;-75
2022/12/28 09:08:56;;;;;;;;;;;;;;;;;;5075558;28;20040;-75
2022/12/28 09:11:22;;;;;;;;;;;;;;;;;;5075226;28;19978;-75
2022/12/28 09:13:50;;;;;;;;;;;;;;;;;;5075100;28;19971;-75
2022/12/28 09:16:17;;;;;;;;;;;;;;;;;;5075690;28;19971;-75
2022/12/28 09:18:44;;;;;;;;;;;;;;;;;;5075266;28;20334;-76
2022/12/28 09:21:13;;;;;;;;;;;;;;;;;;5076168;28;19964;-75
2022/12/28 09:23:39;;;;;;;;;;;;;;;;;;5075886;28;19931;-74
2022/12/28 09:26:07;;;;;;;;;;;;;;;;;;5075596;28;19970;-74
2022/12/28 09:28:33;;;;;;;;;;;;;;;;;;5075874;28;20007;-74
2022/12/28 09:31:03;;;;;;;;;;;;;;;;;;5076119;28;20019;-75
2022/12/28 09:36:15;;;;;;;;;;;;;;;;;;5074943;28;19935;-75
2022/12/28 09:38:41;;;;;;;;;;;;;;;;;;5074630;28;20022;-75
2022/12/28 09:41:12;;;;;;;;;;;;;;;;;;5074931;28;20015;-75
2022/12/28 09:43:40;;;;;;;;;;;;;;;;;;5074781;28;19947;-75
2022/12/28 09:46:08;;;;;;;;;;;;;;;;;;5074746;28;20019;-75
2022/12/28 09:48:35;;;;;;;;;;;;;;;;;;5074643;28;20007;-75
2022/12/28 09:51:01;;;;;;;;;;;;;;;;;;5074656;28;20342;-75
2022/12/28 09:53:30;;;;;;;;;;;;;;;;;;5074436;28;20346;-75
2022/12/28 09:56:04;;;;;;;;;;;;;;;;;;5074684;28;19925;-76
2022/12/28 09:58:32;;;;;;;;;;;;;;;;;;5074304;28;20055;-74
2022/12/28 10:01:00;;;;;;;;;;;;;;;;;;5074412;28;20315;-75
2022/12/28 10:03:32;;;;;;;;;;;;;;;;;;5073924;28;19924;-75
2022/12/28 10:05:59;;;;;;;;;;;;;;;;;;5074070;28;19931;-75
2022/12/28 10:08:27;;;;;;;;;;;;;;;;;;5074087;28;20011;-75
2022/12/28 10:10:55;;;;;;;;;;;;;;;;;;5074583;28;19994;-74
2022/12/28 10:13:22;;;;;;;;;;;;;;;;;;5073922;28;20363;-76
2022/12/28 10:15:49;;;;;;;;;;;;;;;;;;5073897;28;19925;-75
2022/12/28 10:18:18;;;;;;;;;;;;;;;;;;5073767;28;19924;-75
2022/12/28 10:20:45;;;;;;;;;;;;;;;;;;5074198;28;19998;-76
2022/12/28 10:23:13;;;;;;;;;;;;;;;;;;5073702;28;19971;-76
2022/12/28 10:25:40;;;;;;;;;;;;;;;;;;5073878;28;20014;-75
2022/12/28 10:28:07;;;;;;;;;;;;;;;;;;5073409;28;20060;-75
2022/12/28 10:30:43;;;;;;;;;;;;;;;;;;5073651;28;20507;-76
2022/12/28 10:33:10;;;;;;;;;;;;;;;;;;5073327;28;19964;-76
2022/12/28 10:35:39;;;;;;;;;;;;;;;;;;5073461;28;19947;-76
2022/12/28 10:38:07;;;;;;;;;;;;;;;;;;5073495;28;20019;-76
2022/12/28 10:40:35;;;;;;;;;;;;;;;;;;5073784;28;20015;-76
2022/12/28 10:43:02;;;;;;;;;;;;;;;;;;5073350;28;19946;-76
2022/12/28 10:45:33;;;;;;;;;;;;;;;;;;5073388;28;20016;-76
2022/12/28 10:48:01;;;;;;;;;;;;;;;;;;5073199;28;20023;-75
2022/12/28 10:50:38;;;;;;;;;;;;;;;;;;5073474;28;19975;-75
2022/12/28 10:53:05;;;;;;;;;;;;;;;;;;5073177;28;19947;-76
2022/12/28 10:55:33;;;;;;;;;;;;;;;;;;5073173;28;20007;-76
2022/12/28 10:58:14;;;;;;;;;;;;;;;;;;5072955;28;19967;-76
2022/12/28 11:00:41;;;;;;;;;;;;;;;;;;5073112;28;19924;-76
2022/12/28 11:03:16;;;;;;;;;;;;;;;;;;5073023;28;19928;-76
2022/12/28 11:05:43;;;;;;;;;;;;;;;;;;5073077;28;19924;-76
2022/12/28 11:08:12;;;;;;;;;;;;;;;;;;5072833;28;19947;-75
2022/12/28 11:10:40;;;;;;;;;;;;;;;;;;5073384;28;19924;-76
2022/12/28 11:13:09;;;;;;;;;;;;;;;;;;5072955;28;19971;-75
2022/12/28 11:15:35;;;;;;;;;;;;;;;;;;5072812;28;19931;-75
2022/12/28 11:18:07;;;;;;;;;;;;;;;;;;5072766;28;20015;-76
2022/12/28 11:20:34;;;;;;;;;;;;;;;;;;5072763;28;19924;-75
2022/12/28 11:23:01;;;;;;;;;;;;;;;;;;5072296;28;20018;-76
2022/12/28 11:25:30;;;;;;;;;;;;;;;;;;5072451;28;19986;-76
2022/12/28 11:27:58;;;;;;;;;;;;;;;;;;5073544;28;19924;-76
2022/12/28 11:30:24;;;;;;;;;;;;;;;;;;5073826;28;20015;-75
2022/12/28 11:32:52;;;;;;;;;;;;;;;;;;5074279;28;20008;-76
2022/12/28 11:35:20;;;;;;;;;;;;;;;;;;5073793;28;20019;-74
2022/12/28 11:37:51;;;;;;;;;;;;;;;;;;5072886;28;19968;-75
2022/12/28 11:40:32;;;;;;;;;;;;;;;;;;5072367;28;19924;-76
2022/12/28 11:43:00;;;;;;;;;;;;;;;;;;5071514;28;20011;-77
2022/12/28 11:45:49;;;;;;;;;;;;;;;;;;5072356;28;19924;-76
2022/12/28 11:48:35;;;;;;;;;;;;;;;;;;5071899;28;20378;-76
2022/12/28 11:51:03;;;;;;;;;;;;;;;;;;5072365;28;20007;-76
2022/12/28 11:53:44;;;;;;;;;;;;;;;;;;5072029;28;20407;-76
2022/12/28 11:56:11;;;;;;;;;;;;;;;;;;5055250;28;20391;-76
2022/12/28 11:59:00;;;;;;;;;;;;;;;;;;5072390;28;20003;-75
2022/12/28 12:01:43;;;;;;;;;;;;;;;;;;5072075;28;20439;-76
2022/12/28 12:04:33;;;;;;;;;;;;;;;;;;5072108;28;19975;-76
2022/12/28 12:07:27;;;;;;;;;;;;;;;;;;5072335;28;20364;-76
2022/12/28 12:10:20;;;;;;;;;;;;;;;;;;5072642;28;20019;-76
2022/12/28 12:12:48;;;;;;;;;;;;;;;;;;5024571;28;20011;-76
2022/12/28 12:15:17;;;;;;;;;;;;;;;;;;5072329;28;19924;-75
2022/12/28 12:17:45;;;;;;;;;;;;;;;;;;5072287;28;20003;-75
2022/12/28 12:20:23;;;;;;;;;;;;;;;;;;5072047;28;19931;-75
2022/12/28 12:22:51;;;;;;;;;;;;;;;;;;5071908;28;19959;-75
2022/12/28 12:25:19;;;;;;;;;;;;;;;;;;5072010;28;19931;-75
2022/12/28 12:27:47;;;;;;;;;;;;;;;;;;5072184;28;20454;-76
2022/12/28 12:30:15;;;;;;;;;;;;;;;;;;5072468;28;19928;-75
2022/12/28 12:32:44;;;;;;;;;;;;;;;;;;5071973;28;20352;-76
2022/12/28 12:35:13;;;;;;;;;;;;;;;;;;5072199;28;20003;-76
2022/12/28 12:37:44;;;;;;;;;;;;;;;;;;5071946;28;20012;-76
2022/12/28 12:40:36;;;;;;;;;;;;;;;;;;5071792;28;19925;-76
2022/12/28 12:43:15;;;;;;;;;;;;;;;;;;5071765;28;19964;-75
2022/12/28 12:45:47;;;;;;;;;;;;;;;;;;5072205;28;19960;-75
2022/12/28 12:48:28;;;;;;;;;;;;;;;;;;5071577;28;20023;-75
2022/12/28 12:51:03;;;;;;;;;;;;;;;;;;5071938;28;19931;-75
2022/12/28 12:53:36;;;;;;;;;;;;;;;;;;5071761;28;19924;-75
2022/12/28 12:56:07;;;;;;;;;;;;;;;;;;5071862;28;19978;-75
2022/12/28 12:58:40;;;;;;;;;;;;;;;;;;5071307;28;19968;-75
2022/12/28 13:01:18;;;;;;;;;;;;;;;;;;5048735;22;19969;-58
2022/12/28 13:03:46;;;;;;;;;;;;;;;;;;4995839;28;19926;-58
2022/12/28 13:06:15;;;;;;;;;;;;;;;;;;4976477;28;19980;-57
2022/12/28 13:08:46;;;;;;;;;;;;;;;;;;4976508;28;19926;-54
2022/12/28 13:11:14;;;;;;;;;;;;;;;;;;4976208;28;19926;-54
2022/12/28 13:13:41;;;;;;;;;;;;;;;;;;4976413;28;20222;-56
2022/12/28 13:16:09;;;;;;;;;;;;;;;;;;4976280;28;19930;-56
2022/12/28 13:18:36;;;;;;;;;;;;;;;;;;4976448;28;19926;-55
2022/12/28 13:21:05;;;;;;;;;;;;;;;;;;4976134;28;19926;-58
2022/12/28 13:23:32;;;;;;;;;;;;;;;;;;4976247;28;19927;-55
2022/12/28 13:26:00;;;;;;;;;;;;;;;;;;4975770;28;19992;-54
2022/12/28 13:28:28;;;;;;;;;;;;;;;;;;4976041;28;19973;-54
2022/12/28 13:30:58;;;;;;;;;;;;;;;;;;4975721;28;19926;-56
2022/12/28 13:33:25;;;;;;;;;;;;;;;;;;4975826;28;20339;-57
2022/12/28 13:36:03;;;;;;;;;;;;;;;;;;4975902;28;19993;-57
2022/12/28 13:38:31;;;;;;;;;;;;;;;;;;4975759;28;19932;-54
2022/12/28 13:40:58;;;;;;;;;;;;;;;;;;4975930;28;19930;-55
2022/12/28 13:43:46;;;;;;;;;;;;;;;;;;4975714;28;19926;-56
2022/12/28 13:46:13;;;;;;;;;;;;;;;;;;4975919;28;19930;-58
2022/12/28 13:48:42;;;;;;;;;;;;;;;;;;4975704;28;19926;-56
2022/12/28 13:51:09;;;;;;;;;;;;;;;;;;4975625;28;19973;-57
2022/12/28 13:53:37;;;;;;;;;;;;;;;;;;4975658;28;19988;-54
2022/12/28 13:56:05;;;;;;;;;;;;;;;;;;4975722;28;19930;-53
2022/12/28 13:58:34;;;;;;;;;;;;;;;;;;4975608;28;20280;-54
2022/12/28 14:01:02;;;;;;;;;;;;;;;;;;4987640;28;20004;-55
2022/12/28 14:03:29;;;;;;;;;;;;;;;;;;4994785;28;20310;-53
2022/12/28 14:05:58;;;;;;;;;;;;;;;;;;5012545;28;19984;-53
2022/12/28 14:08:26;;;;;;;;;;;;;;;;;;5014759;28;19925;-57
2022/12/28 14:10:54;;;;;;;;;;;;;;;;;;5013958;28;20349;-52
2022/12/28 14:13:21;;;;;;;;;;;;;;;;;;5014077;28;19925;-54
2022/12/28 14:15:48;;;;;;;;;;;;;;;;;;5014364;28;19929;-53
2022/12/28 14:18:15;;;;;;;;;;;;;;;;;;5014460;28;19925;-56
2022/12/28 14:20:46;;;;;;;;;;;;;;;;;;5014185;28;19926;-56
2022/12/28 14:23:19;;;;;;;;;;;;;;;;;;5014157;28;20390;-54
2022/12/28 14:25:46;;;;;;;;;;;;;;;;;;5014274;28;20310;-56
2022/12/28 14:28:18;;;;;;;;;;;;;;;;;;5014019;28;20390;-57
2022/12/28 14:30:50;;;;;;;;;;;;;;;;;;5014156;28;20361;-55
2022/12/28 14:33:19;;;;;;;;;;;;;;;;;;5014132;28;19975;-55
2022/12/28 14:35:48;;;;;;;;;;;;;;;;;;5013998;28;19925;-53
2022/12/28 14:38:18;;;;;;;;;;;;;;;;;;5014055;28;20390;-55
2022/12/28 14:40:44;;;;;;;;;;;;;;;;;;5014184;28;19932;-58
2022/12/28 14:43:18;;;;;;;;;;;;;;;;;;5013706;28;19929;-56
2022/12/28 14:45:46;;;;;;;;;;;;;;;;;;5013862;28;19926;-57
2022/12/28 14:48:23;;;;;;;;;;;;;;;;;;5013799;28;19980;-59
2022/12/28 14:50:57;;;;;;;;;;;;;;;;;;5013706;28;20016;-53
2022/12/28 14:53:23;;;;;;;;;;;;;;;;;;5013432;28;20021;-56
2022/12/28 14:55:55;;;;;;;;;;;;;;;;;;5013618;28;19980;-53
2022/12/28 14:58:24;;;;;;;;;;;;;;;;;;5013495;28;19932;-53
2022/12/28 15:00:55;;;;;;;;;;;;;;;;;;5024380;28;19983;-55
2022/12/28 15:03:22;;;;;;;;;;;;;;;;;;5032867;28;19976;-56
2022/12/28 15:05:49;;;;;;;;;;;;;;;;;;5016325;28;19925;-56
2022/12/28 15:08:16;;;;;;;;;;;;;;;;;;5013291;28;19926;-55
2022/12/28 15:10:45;;;;;;;;;;;;;;;;;;5013381;28;19972;-53
2022/12/28 15:13:12;;;;;;;;;;;;;;;;;;5012928;28;19925;-54
2022/12/28 15:15:40;;;;;;;;;;;;;;;;;;5013391;28;19926;-55
2022/12/28 15:18:07;;;;;;;;;;;;;;;;;;5013105;28;20409;-58
2022/12/28 15:20:35;;;;;;;;;;;;;;;;;;5013157;28;20400;-55
2022/12/28 15:23:02;;;;;;;;;;;;;;;;;;5012000;28;19952;-51
2022/12/28 15:25:28;;;;;;;;;;;;;;;;;;5013517;28;19948;-56
2022/12/28 15:27:55;;;;;;;;;;;;;;;;;;5013138;28;20379;-54
2022/12/28 15:30:21;;;;;;;;;;;;;;;;;;5013222;28;20369;-58
2022/12/28 15:32:49;;;;;;;;;;;;;;;;;;5012830;28;19930;-54
2022/12/28 15:35:16;;;;;;;;;;;;;;;;;;5005088;28;20749;-55
2022/12/28 15:37:42;;;;;;;;;;;;;;;;;;5012588;28;20441;-57
2022/12/28 15:40:09;;;;;;;;;;;;;;;;;;5010004;28;20386;-57
2022/12/28 15:42:36;;;;;;;;;;;;;;;;;;5009632;28;19926;-56
2022/12/28 15:45:03;;;;;;;;;;;;;;;;;;5010696;28;20031;-56
2022/12/28 15:47:30;;;;;;;;;;;;;;;;;;5011945;28;19930;-56
2022/12/28 15:50:01;;;;;;;;;;;;;;;;;;5012136;28;19926;-56
2022/12/28 15:52:28;;;;;;;;;;;;;;;;;;5012876;28;19972;-54
2022/12/28 15:54:55;;;;;;;;;;;;;;;;;;5012281;28;19925;-53
2022/12/28 15:57:21;;;;;;;;;;;;;;;;;;5012332;28;19968;-56
2022/12/28 15:59:48;;;;;;;;;;;;;;;;;;5011369;28;19925;-53
2022/12/28 16:02:15;;;;;;;;;;;;;;;;;;5012110;28;19980;-56
2022/12/28 16:04:41;;;;;;;;;;;;;;;;;;5009724;28;19937;-56
2022/12/28 16:07:09;;;;;;;;;;;;;;;;;;5012046;28;19933;-54
2022/12/28 16:09:36;;;;;;;;;;;;;;;;;;5009779;28;20012;-56
2022/12/28 16:12:03;;;;;;;;;;;;;;;;;;5012118;28;19972;-58
2022/12/28 16:14:30;;;;;;;;;;;;;;;;;;5011526;28;19929;-55
2022/12/28 16:16:56;;;;;;;;;;;;;;;;;;5012439;28;20383;-54
2022/12/28 16:19:23;;;;;;;;;;;;;;;;;;5008099;28;20395;-53
2022/12/28 16:21:50;;;;;;;;;;;;;;;;;;5011645;28;20024;-54
2022/12/28 16:24:18;;;;;;;;;;;;;;;;;;5011717;28;20430;-57
2022/12/28 16:26:45;;;;;;;;;;;;;;;;;;5012413;28;19987;-58
2022/12/28 16:29:12;;;;;;;;;;;;;;;;;;5011806;28;19933;-56
2022/12/28 16:31:39;;;;;;;;;;;;;;;;;;5011714;28;20298;-53
2022/12/28 16:34:06;;;;;;;;;;;;;;;;;;5013403;28;20386;-55
2022/12/28 16:36:33;;;;;;;;;;;;;;;;;;5015981;28;19925;-56
2022/12/28 16:39:02;;;;;;;;;;;;;;;;;;5020107;28;19925;-52
2022/12/28 16:41:30;;;;;;;;;;;;;;;;;;5021805;28;19940;-53
2022/12/28 16:44:00;;;;;;;;;;;;;;;;;;5015578;28;20364;-65
2022/12/28 16:46:27;;;;;;;;;;;;;;;;;;5016404;28;19933;-61
2022/12/28 16:48:53;;;;;;;;;;;;;;;;;;5016075;28;19926;-57
2022/12/28 16:51:20;;;;;;;;;;;;;;;;;;5016023;28;19999;-55
2022/12/28 16:53:46;;;;;;;;;;;;;;;;;;5015746;28;20390;-55
2022/12/28 16:56:13;;;;;;;;;;;;;;;;;;5015893;28;19929;-54
2022/12/28 16:58:41;;;;;;;;;;;;;;;;;;5015745;28;19932;-53
2022/12/28 17:01:09;;;;;;;;;;;;;;;;;;5015745;28;19925;-54
2022/12/28 17:03:36;;;;;;;;;;;;;;;;;;5015397;28;19925;-57
2022/12/28 17:06:02;;;;;;;;;;;;;;;;;;4997259;28;19973;-53
2022/12/28 17:08:29;;;;;;;;;;;;;;;;;;4996224;28;19926;-58
2022/12/28 17:10:56;;;;;;;;;;;;;;;;;;4996035;28;19930;-58
2022/12/28 17:13:22;;;;;;;;;;;;;;;;;;4995906;28;19991;-58
2022/12/28 17:15:50;;;;;;;;;;;;;;;;;;4995880;28;20001;-52
2022/12/28 17:18:17;;;;;;;;;;;;;;;;;;4995918;28;19989;-57
2022/12/28 17:20:44;;;;;;;;;;;;;;;;;;4995850;28;19926;-55
2022/12/28 17:23:10;;;;;;;;;;;;;;;;;;4995558;28;19926;-54
2022/12/28 17:25:37;;;;;;;;;;;;;;;;;;4995800;28;20362;-56